createdAt,value
2022-09-25T00:00:10.980Z,17.3
2022-09-25T00:01:11.315Z,17.333
2022-09-25T00:02:11.211Z,17.339
2022-09-25T00:03:11.761Z,17.385
2022-09-25T00:04:11.878Z,17.395
2022-09-25T00:05:11.791Z,17.372
2022-09-25T00:06:11.204Z,17.345
2022-09-25T00:07:11.439Z,17.339
2022-09-25T00:08:11.173Z,17.31
2022-09-25T00:09:11.415Z,17.295
2022-09-25T00:10:11.106Z,17.31
2022-09-25T00:11:11.403Z,17.27
2022-09-25T00:12:10.595Z,17.24
2022-09-25T00:13:11.115Z,17.225
2022-09-25T00:14:11.504Z,17.22
2022-09-25T00:15:11.955Z,17.21
2022-09-25T00:16:11.771Z,17.166
2022-09-25T00:17:11.879Z,17.16
2022-09-25T00:18:11.415Z,17.177
2022-09-25T00:19:11.234Z,17.16
2022-09-25T00:20:11.618Z,17.143
2022-09-25T00:21:11.381Z,17.138
2022-09-25T00:22:11.561Z,17.1
2022-09-25T00:23:11.358Z,17.106
2022-09-25T00:24:11.915Z,17.105
2022-09-25T00:25:11.762Z,17.11
2022-09-25T00:26:11.367Z,17.09
2022-09-25T00:27:11.895Z,17.065
2022-09-25T00:28:15.167Z,17.065
2022-09-25T00:29:10.592Z,17.07
2022-09-25T00:30:10.695Z,17.06
2022-09-25T00:31:11.362Z,17.09
2022-09-25T00:32:13.288Z,17.095
2022-09-25T00:33:11.070Z,17.105
2022-09-25T00:34:10.165Z,17.115
2022-09-25T00:35:12.227Z,17.143
2022-09-25T00:36:11.639Z,17.143
2022-09-25T00:37:11.474Z,17.132
2022-09-25T00:38:11.328Z,17.12
2022-09-25T00:39:10.447Z,17.1
2022-09-25T00:40:11.250Z,17.105
2022-09-25T00:41:11.229Z,17.1
2022-09-25T00:42:10.709Z,17.115
2022-09-25T00:43:11.370Z,17.11
2022-09-25T00:44:09.848Z,17.132
2022-09-25T00:45:10.692Z,17.095
2022-09-25T00:46:11.684Z,17.04
2022-09-25T00:47:11.807Z,17.015
2022-09-25T00:48:11.412Z,17.01
2022-09-25T00:49:11.370Z,16.99
2022-09-25T00:50:11.437Z,16.975
2022-09-25T00:51:11.173Z,16.995
2022-09-25T00:52:11.295Z,16.985
2022-09-25T00:53:11.294Z,16.955
2022-09-25T00:54:09.758Z,16.97
2022-09-25T00:55:11.319Z,16.97
2022-09-25T00:56:11.598Z,16.965
2022-09-25T00:57:11.822Z,16.95
2022-09-25T00:58:11.643Z,16.965
2022-09-25T00:59:10.642Z,16.95
2022-09-25T01:00:11.313Z,17
2022-09-25T01:01:11.327Z,16.975
2022-09-25T01:02:11.242Z,16.95
2022-09-25T01:03:10.817Z,16.95
2022-09-25T01:04:09.890Z,16.9509
2022-09-25T01:05:10.731Z,16.93
2022-09-25T01:06:10.445Z,16.935
2022-09-25T01:07:11.738Z,16.963
2022-09-25T01:08:11.021Z,16.96
2022-09-25T01:09:10.907Z,16.965
2022-09-25T01:10:11.190Z,16.9672
2022-09-25T01:11:11.255Z,16.975
2022-09-25T01:12:10.814Z,16.985
2022-09-25T01:13:11.241Z,17
2022-09-25T01:14:10.338Z,17.01
2022-09-25T01:15:10.077Z,17.015
2022-09-25T01:16:11.238Z,16.985
2022-09-25T01:17:10.990Z,16.995
2022-09-25T01:18:11.725Z,17.01
2022-09-25T01:19:11.030Z,16.98
2022-09-25T01:20:11.332Z,16.97
2022-09-25T01:21:11.229Z,16.995
2022-09-25T01:22:10.905Z,17.005
2022-09-25T01:23:13.011Z,17.01
2022-09-25T01:24:11.327Z,17.03
2022-09-25T01:25:10.675Z,17.07
2022-09-25T01:26:15.448Z,17.055
2022-09-25T01:27:12.061Z,17.03
2022-09-25T01:28:11.852Z,17.045
2022-09-25T01:29:11.556Z,17.035
2022-09-25T01:30:11.539Z,17.045
2022-09-25T01:31:11.798Z,17.055
2022-09-25T01:32:11.247Z,17.065
2022-09-25T01:33:11.639Z,17.055
2022-09-25T01:34:09.751Z,17.025
2022-09-25T01:35:10.647Z,17.02
2022-09-25T01:36:11.209Z,17
2022-09-25T01:37:12.065Z,16.995
2022-09-25T01:38:11.597Z,17.02
2022-09-25T01:39:10.972Z,16.99
2022-09-25T01:40:11.746Z,17
2022-09-25T01:41:11.021Z,17.01
2022-09-25T01:42:11.531Z,16.995
2022-09-25T01:43:11.512Z,17.025
2022-09-25T01:44:11.372Z,17.005
2022-09-25T01:45:11.415Z,17.02
2022-09-25T01:46:11.036Z,17.045
2022-09-25T01:47:10.999Z,17.065
2022-09-25T01:48:11.751Z,17.105
2022-09-25T01:49:10.831Z,17.1316
2022-09-25T01:50:11.006Z,17.166
2022-09-25T01:51:11.548Z,17.166
2022-09-25T01:52:11.567Z,17.137
2022-09-25T01:53:10.931Z,17.155
2022-09-25T01:54:11.277Z,17.166
2022-09-25T01:55:10.982Z,17.149
2022-09-25T01:56:11.126Z,17.155
2022-09-25T01:57:11.799Z,17.105
2022-09-25T01:58:11.432Z,17.09
2022-09-25T01:59:11.591Z,17.07
2022-09-25T02:00:11.927Z,17.06
2022-09-25T02:01:11.812Z,17.065
2022-09-25T02:02:11.568Z,17.04
2022-09-25T02:03:10.973Z,17.03
2022-09-25T02:04:09.868Z,17.045
2022-09-25T02:05:11.145Z,17.045
2022-09-25T02:06:11.069Z,17.045
2022-09-25T02:07:11.907Z,17.06
2022-09-25T02:08:11.257Z,17.085
2022-09-25T02:09:11.469Z,17.07
2022-09-25T02:10:11.738Z,17.075
2022-09-25T02:11:11.434Z,17.085
2022-09-25T02:12:11.680Z,17.085
2022-09-25T02:13:11.229Z,17.09
2022-09-25T02:14:10.361Z,17.075
2022-09-25T02:15:10.816Z,17.095
2022-09-25T02:16:12.231Z,17.1
2022-09-25T02:17:11.920Z,17.095
2022-09-25T02:18:11.296Z,17.095
2022-09-25T02:19:10.886Z,17.06
2022-09-25T02:20:10.808Z,17.03
2022-09-25T02:21:11.174Z,17.005
2022-09-25T02:22:11.317Z,16.965
2022-09-25T02:23:11.582Z,16.985
2022-09-25T02:24:11.242Z,16.98
2022-09-25T02:25:10.896Z,16.97
2022-09-25T02:26:11.383Z,16.98
2022-09-25T02:27:11.725Z,17.01
2022-09-25T02:28:11.321Z,17.035
2022-09-25T02:29:10.626Z,17.045
2022-09-25T02:30:11.403Z,17.05
2022-09-25T02:31:11.922Z,17.05
2022-09-25T02:32:11.606Z,17.055
2022-09-25T02:33:11.275Z,17.03
2022-09-25T02:34:14.717Z,17.035
2022-09-25T02:35:11.523Z,17.02
2022-09-25T02:36:10.212Z,17.0163
2022-09-25T02:37:11.023Z,16.995
2022-09-25T02:38:11.918Z,16.94
2022-09-25T02:39:10.548Z,16.935
2022-09-25T02:40:11.837Z,16.92
2022-09-25T02:41:11.667Z,16.9
2022-09-25T02:42:11.063Z,16.89
2022-09-25T02:43:11.519Z,16.89
2022-09-25T02:44:10.804Z,16.915
2022-09-25T02:45:11.115Z,16.905
2022-09-25T02:46:10.279Z,16.895
2022-09-25T02:47:10.884Z,16.905
2022-09-25T02:48:10.416Z,16.92
2022-09-25T02:49:11.052Z,16.9538
2022-09-25T02:50:11.756Z,16.94
2022-09-25T02:51:11.929Z,16.945
2022-09-25T02:52:11.808Z,16.955
2022-09-25T02:53:11.699Z,16.96
2022-09-25T02:54:11.096Z,16.99
2022-09-25T02:55:11.651Z,16.975
2022-09-25T02:56:11.175Z,16.98
2022-09-25T02:57:10.776Z,17.015
2022-09-25T02:58:10.775Z,17.04
2022-09-25T02:59:11.042Z,17.005
2022-09-25T03:00:11.560Z,16.99
2022-09-25T03:01:11.975Z,16.985
2022-09-25T03:02:11.917Z,16.995
2022-09-25T03:03:11.205Z,16.97
2022-09-25T03:04:10.620Z,16.98
2022-09-25T03:05:11.406Z,16.985
2022-09-25T03:06:11.077Z,16.965
2022-09-25T03:07:11.075Z,16.935
2022-09-25T03:08:11.086Z,16.94
2022-09-25T03:09:10.105Z,16.955
2022-09-25T03:10:10.076Z,16.97
2022-09-25T03:11:11.624Z,16.99
2022-09-25T03:12:11.792Z,16.98
2022-09-25T03:13:11.628Z,16.935
2022-09-25T03:14:10.699Z,16.93
2022-09-25T03:15:11.262Z,16.945
2022-09-25T03:16:11.539Z,16.96
2022-09-25T03:17:11.370Z,16.945
2022-09-25T03:18:10.646Z,16.94
2022-09-25T03:19:10.094Z,16.925
2022-09-25T03:20:10.913Z,16.93
2022-09-25T03:21:10.641Z,16.91
2022-09-25T03:22:11.981Z,16.8741
2022-09-25T03:23:12.022Z,16.895
2022-09-25T03:24:11.005Z,16.89
2022-09-25T03:25:11.474Z,16.885
2022-09-25T03:26:11.329Z,16.867
2022-09-25T03:27:11.082Z,16.873
2022-09-25T03:28:11.229Z,16.91
2022-09-25T03:29:10.303Z,16.8791
2022-09-25T03:30:10.312Z,16.8791
2022-09-25T03:31:11.924Z,16.862
2022-09-25T03:32:12.343Z,16.9
2022-09-25T03:33:12.090Z,16.885
2022-09-25T03:34:10.565Z,16.884
2022-09-25T03:35:10.744Z,16.899
2022-09-25T03:36:11.388Z,16.894
2022-09-25T03:37:11.522Z,16.85
2022-09-25T03:38:11.116Z,16.845
2022-09-25T03:39:10.448Z,16.845
2022-09-25T03:40:10.871Z,16.834
2022-09-25T03:41:11.864Z,16.8
2022-09-25T03:42:10.784Z,16.833
2022-09-25T03:44:10.696Z,16.845
2022-09-25T03:45:10.998Z,16.839
2022-09-25T03:46:11.524Z,16.816
2022-09-25T03:47:11.709Z,16.8216
2022-09-25T03:48:10.682Z,16.805
2022-09-25T03:49:10.131Z,16.833
2022-09-25T03:50:10.722Z,16.812
2022-09-25T03:51:11.100Z,16.8
2022-09-25T03:52:11.808Z,16.78
2022-09-25T03:53:12.131Z,16.765
2022-09-25T03:54:10.971Z,16.755
2022-09-25T03:55:10.890Z,16.76
2022-09-25T03:56:11.437Z,16.76
2022-09-25T03:57:11.324Z,16.817
2022-09-25T03:58:11.232Z,16.856
2022-09-25T03:59:10.269Z,16.862
2022-09-25T04:00:10.880Z,16.862
2022-09-25T04:01:11.911Z,16.84
2022-09-25T04:02:11.476Z,16.805
2022-09-25T04:03:11.291Z,16.785
2022-09-25T04:04:11.374Z,16.78
2022-09-25T04:05:11.701Z,16.75
2022-09-25T04:06:10.891Z,16.77
2022-09-25T04:07:11.254Z,16.745
2022-09-25T04:08:11.487Z,16.735
2022-09-25T04:09:09.913Z,16.745
2022-09-25T04:10:10.623Z,16.735
2022-09-25T04:11:10.923Z,16.7063
2022-09-25T04:12:11.785Z,16.688
2022-09-25T04:13:11.254Z,16.715
2022-09-25T04:14:10.561Z,16.735
2022-09-25T04:15:11.385Z,16.745
2022-09-25T04:16:11.142Z,16.75
2022-09-25T04:17:11.102Z,16.744
2022-09-25T04:18:11.340Z,16.72
2022-09-25T04:19:10.080Z,16.72
2022-09-25T04:20:10.938Z,16.72
2022-09-25T04:21:11.749Z,16.6792
2022-09-25T04:22:11.958Z,16.666
2022-09-25T04:23:11.635Z,16.627
2022-09-25T04:24:10.750Z,16.655
2022-09-25T04:25:11.229Z,16.6316
2022-09-25T04:26:11.496Z,16.626
2022-09-25T04:27:11.120Z,16.6
2022-09-25T04:28:10.868Z,16.58
2022-09-25T04:29:10.957Z,16.57
2022-09-25T04:30:11.620Z,16.535
2022-09-25T04:31:11.662Z,16.5
2022-09-25T04:32:11.302Z,16.485
2022-09-25T04:33:11.404Z,16.455
2022-09-25T04:34:11.913Z,16.455
2022-09-25T04:35:11.152Z,16.445
2022-09-25T04:36:11.160Z,16.425
2022-09-25T04:37:11.262Z,16.42
2022-09-25T04:38:11.095Z,16.44
2022-09-25T04:39:09.799Z,16.435
2022-09-25T04:40:11.805Z,16.41
2022-09-25T04:41:11.733Z,16.445
2022-09-25T04:42:11.798Z,16.45
2022-09-25T04:43:11.751Z,16.445
2022-09-25T04:44:10.483Z,16.425
2022-09-25T04:45:11.508Z,16.405
2022-09-25T04:46:14.208Z,16.435
2022-09-25T04:47:10.773Z,16.43
2022-09-25T04:48:11.290Z,16.42
2022-09-25T04:49:10.524Z,16.425
2022-09-25T04:50:11.860Z,16.3791
2022-09-25T04:51:11.873Z,16.384
2022-09-25T04:52:11.153Z,16.395
2022-09-25T04:53:11.392Z,16.384
2022-09-25T04:54:10.170Z,16.367
2022-09-25T04:55:10.771Z,16.362
2022-09-25T04:56:15.420Z,16.356
2022-09-25T04:57:10.930Z,16.339
2022-09-25T04:58:11.234Z,16.362
2022-09-25T04:59:10.064Z,16.3683
2022-09-25T05:00:11.772Z,16.339
2022-09-25T05:01:11.707Z,16.355
2022-09-25T05:02:11.637Z,16.356
2022-09-25T05:03:11.487Z,16.333
2022-09-25T05:04:10.524Z,16.316
2022-09-25T05:05:10.727Z,16.3216
2022-09-25T05:06:10.302Z,16.3216
2022-09-25T05:07:11.360Z,16.27
2022-09-25T05:08:11.549Z,16.265
2022-09-25T05:09:10.564Z,16.275
2022-09-25T05:10:10.949Z,16.25
2022-09-25T05:11:10.943Z,16.27
2022-09-25T05:12:11.331Z,16.285
2022-09-25T05:13:11.373Z,16.295
2022-09-25T05:14:10.144Z,16.305
2022-09-25T05:15:11.104Z,16.3216
2022-09-25T05:16:10.784Z,16.334
2022-09-25T05:17:11.157Z,16.285
2022-09-25T05:18:11.835Z,16.25
2022-09-25T05:19:11.725Z,16.225
2022-09-25T05:20:11.468Z,16.195
2022-09-25T05:21:11.716Z,16.183
2022-09-25T05:22:10.874Z,16.1841
2022-09-25T05:23:10.581Z,16.194
2022-09-25T05:24:11.027Z,16.166
2022-09-25T05:25:10.639Z,16.16
2022-09-25T05:26:11.008Z,16.1316
2022-09-25T05:27:11.965Z,16.12
2022-09-25T05:28:11.754Z,16.09
2022-09-25T05:29:10.226Z,16.045
2022-09-25T05:30:10.951Z,16.03
2022-09-25T05:31:10.325Z,16.01
2022-09-25T05:32:11.560Z,15.975
2022-09-25T05:33:11.236Z,15.935
2022-09-25T05:34:10.357Z,15.94
2022-09-25T05:35:10.338Z,15.925
2022-09-25T05:36:11.188Z,15.925
2022-09-25T05:37:11.193Z,15.92
2022-09-25T05:38:10.763Z,15.945
2022-09-25T05:39:14.213Z,15.935
2022-09-25T05:40:11.111Z,15.96
2022-09-25T05:41:10.414Z,15.965
2022-09-25T05:42:10.870Z,15.97
2022-09-25T05:43:11.929Z,15.97
2022-09-25T05:44:10.543Z,15.94
2022-09-25T05:45:11.181Z,15.97
2022-09-25T05:46:11.090Z,15.935
2022-09-25T05:47:10.999Z,15.98
2022-09-25T05:48:10.541Z,15.995
2022-09-25T05:49:09.933Z,15.98
2022-09-25T05:50:11.158Z,15.9672
2022-09-25T05:51:11.201Z,16
2022-09-25T05:52:11.398Z,16.015
2022-09-25T05:53:11.921Z,16.0138
2022-09-25T05:54:11.467Z,16
2022-09-25T05:55:11.512Z,15.99
2022-09-25T05:56:11.700Z,15.9618
2022-09-25T05:57:11.466Z,15.97
2022-09-25T05:58:11.274Z,15.96
2022-09-25T05:59:10.240Z,15.99
2022-09-25T06:00:10.874Z,15.965
2022-09-25T06:01:12.030Z,16
2022-09-25T06:02:12.652Z,16
2022-09-25T06:03:11.326Z,15.994
2022-09-25T06:04:11.755Z,15.99
2022-09-25T06:05:11.728Z,16.005
2022-09-25T06:06:11.026Z,16.02
2022-09-25T06:07:11.348Z,16
2022-09-25T06:08:10.984Z,16.02
2022-09-25T06:09:11.122Z,16.005
2022-09-25T06:10:11.917Z,16.015
2022-09-25T06:11:11.814Z,16
2022-09-25T06:12:11.694Z,15.975
2022-09-25T06:13:11.386Z,15.965
2022-09-25T06:14:11.260Z,15.945
2022-09-25T06:15:10.752Z,15.92
2022-09-25T06:16:11.130Z,15.96
2022-09-25T06:17:10.967Z,15.94
2022-09-25T06:18:11.133Z,15.945
2022-09-25T06:19:10.595Z,15.93
2022-09-25T06:20:15.923Z,15.95
2022-09-25T06:21:11.411Z,15.945
2022-09-25T06:22:11.433Z,15.925
2022-09-25T06:23:11.709Z,15.945
2022-09-25T06:24:10.922Z,15.925
2022-09-25T06:25:10.670Z,15.935
2022-09-25T06:26:11.575Z,15.945
2022-09-25T06:27:11.139Z,15.945
2022-09-25T06:28:11.812Z,15.97
2022-09-25T06:29:11.858Z,15.955
2022-09-25T06:30:11.461Z,15.955
2022-09-25T06:31:11.657Z,15.94
2022-09-25T06:32:11.396Z,15.95
2022-09-25T06:33:11.278Z,15.965
2022-09-25T06:34:10.495Z,15.965
2022-09-25T06:35:10.862Z,15.985
2022-09-25T06:36:10.731Z,16
2022-09-25T06:37:12.036Z,16
2022-09-25T06:38:11.829Z,15.995
2022-09-25T06:39:11.544Z,15.995
2022-09-25T06:40:11.838Z,16.03
2022-09-25T06:41:11.782Z,15.995
2022-09-25T06:42:10.958Z,16.01
2022-09-25T06:43:12.308Z,16.02
2022-09-25T06:44:11.012Z,16.01
2022-09-25T06:45:10.885Z,16.035
2022-09-25T06:46:11.942Z,16.06
2022-09-25T06:47:14.937Z,16.055
2022-09-25T06:48:11.468Z,16.05
2022-09-25T06:49:11.318Z,16.065
2022-09-25T06:50:10.916Z,16.065
2022-09-25T06:51:11.058Z,16.065
2022-09-25T06:52:11.346Z,16.075
2022-09-25T06:53:11.084Z,16.06
2022-09-25T06:54:11.802Z,16.08
2022-09-25T06:55:10.733Z,16.09
2022-09-25T06:56:11.149Z,16.08
2022-09-25T06:57:11.615Z,16.07
2022-09-25T06:58:11.112Z,16.07
2022-09-25T06:59:11.455Z,16.08
2022-09-25T07:00:11.537Z,16.09
2022-09-25T07:01:11.150Z,16.12
2022-09-25T07:02:11.128Z,16.1258
2022-09-25T07:03:11.499Z,16.116
2022-09-25T07:04:11.088Z,16.133
2022-09-25T07:05:11.717Z,16.143
2022-09-25T07:06:11.715Z,16.204
2022-09-25T07:07:11.518Z,16.188
2022-09-25T07:08:10.740Z,16.22
2022-09-25T07:09:09.959Z,16.205
2022-09-25T07:10:10.486Z,16.23
2022-09-25T07:11:10.569Z,16.205
2022-09-25T07:12:11.785Z,16.172
2022-09-25T07:13:11.817Z,16.195
2022-09-25T07:14:11.602Z,16.225
2022-09-25T07:15:11.954Z,16.235
2022-09-25T07:16:11.504Z,16.23
2022-09-25T07:17:11.024Z,16.24
2022-09-25T07:18:10.799Z,16.25
2022-09-25T07:19:11.309Z,16.27
2022-09-25T07:20:11.355Z,16.285
2022-09-25T07:21:11.085Z,16.2936
2022-09-25T07:22:11.803Z,16.3153
2022-09-25T07:23:11.927Z,16.35
2022-09-25T07:24:10.820Z,16.384
2022-09-25T07:25:10.951Z,16.384
2022-09-25T07:26:10.698Z,16.44
2022-09-25T07:27:11.637Z,16.429
2022-09-25T07:28:11.444Z,16.43
2022-09-25T07:29:11.117Z,16.445
2022-09-25T07:30:10.661Z,16.48
2022-09-25T07:31:12.157Z,16.4861
2022-09-25T07:32:11.411Z,16.505
2022-09-25T07:33:11.436Z,16.5272
2022-09-25T07:34:11.552Z,16.535
2022-09-25T07:35:11.599Z,16.54
2022-09-25T07:36:11.294Z,16.57
2022-09-25T07:37:11.922Z,16.55
2022-09-25T07:38:14.949Z,16.555
2022-09-25T07:39:16.071Z,16.575
2022-09-25T07:40:10.906Z,16.575
2022-09-25T07:41:11.997Z,16.55
2022-09-25T07:42:11.475Z,16.565
2022-09-25T07:43:11.589Z,16.565
2022-09-25T07:44:28.126Z,16.545
2022-09-25T07:45:11.367Z,16.565
2022-09-25T07:46:11.504Z,16.57
2022-09-25T07:47:11.479Z,16.61
2022-09-25T07:48:10.720Z,16.677
2022-09-25T07:49:11.218Z,16.7
2022-09-25T07:50:15.365Z,16.735
2022-09-25T07:51:11.879Z,16.74
2022-09-25T07:52:11.211Z,16.755
2022-09-25T07:53:11.742Z,16.77
2022-09-25T07:54:11.463Z,16.822
2022-09-25T07:55:11.588Z,16.8158
2022-09-25T07:56:10.659Z,16.827
2022-09-25T07:57:11.365Z,16.827
2022-09-25T07:58:11.233Z,16.833
2022-09-25T07:59:11.319Z,16.827
2022-09-25T08:00:11.122Z,16.85
2022-09-25T08:01:12.078Z,16.862
2022-09-25T08:02:11.886Z,16.8741
2022-09-25T08:03:11.548Z,16.895
2022-09-25T08:04:11.296Z,16.94
2022-09-25T08:05:11.295Z,16.925
2022-09-25T08:06:11.407Z,16.92
2022-09-25T08:07:11.073Z,16.905
2022-09-25T08:08:10.978Z,16.89
2022-09-25T08:09:11.442Z,16.8791
2022-09-25T08:10:11.247Z,16.915
2022-09-25T08:11:11.800Z,16.935
2022-09-25T08:12:11.664Z,16.925
2022-09-25T08:13:11.869Z,16.92
2022-09-25T08:14:11.423Z,16.885
2022-09-25T08:15:11.395Z,16.88
2022-09-25T08:16:11.178Z,16.89
2022-09-25T08:17:11.122Z,16.935
2022-09-25T08:18:10.867Z,16.94
2022-09-25T08:19:11.056Z,16.955
2022-09-25T08:20:10.914Z,16.985
2022-09-25T08:21:11.457Z,16.955
2022-09-25T08:22:11.299Z,16.96
2022-09-25T08:23:11.325Z,16.955
2022-09-25T08:24:11.787Z,16.925
2022-09-25T08:25:11.070Z,16.97
2022-09-25T08:26:10.637Z,16.96
2022-09-25T08:27:10.938Z,16.98
2022-09-25T08:28:10.866Z,17.01
2022-09-25T08:29:10.830Z,17.055
2022-09-25T08:30:10.424Z,17.07
2022-09-25T08:31:11.780Z,17.111
2022-09-25T08:32:11.895Z,17.137
2022-09-25T08:33:15.267Z,17.1891
2022-09-25T08:34:38.955Z,17.149
2022-09-25T08:35:11.924Z,17.16
2022-09-25T08:36:11.688Z,17.16
2022-09-25T08:37:11.022Z,17.23
2022-09-25T08:38:10.981Z,17.25
2022-09-25T08:39:10.586Z,17.345
2022-09-25T08:40:11.927Z,17.41
2022-09-25T08:41:11.360Z,17.44
2022-09-25T08:42:11.539Z,17.445
2022-09-25T08:43:11.232Z,17.44
2022-09-25T08:44:11.246Z,17.45
2022-09-25T08:45:21.188Z,17.48
2022-09-25T08:46:10.425Z,17.5
2022-09-25T08:47:12.286Z,17.48
2022-09-25T08:48:10.733Z,17.5
2022-09-25T08:49:11.318Z,17.54
2022-09-25T08:50:10.215Z,17.58
2022-09-25T08:51:10.697Z,17.6
2022-09-25T08:52:09.877Z,17.639
2022-09-25T08:53:11.961Z,17.6207
2022-09-25T08:54:11.636Z,17.643
2022-09-25T08:55:12.036Z,17.649
2022-09-25T08:56:10.747Z,17.683
2022-09-25T08:57:11.219Z,17.745
2022-09-25T08:58:11.433Z,17.745
2022-09-25T08:59:11.600Z,17.8109
2022-09-25T09:00:11.314Z,17.88
2022-09-25T09:01:11.162Z,17.96
2022-09-25T09:02:11.108Z,18
2022-09-25T09:03:11.142Z,18.045
2022-09-25T09:04:10.084Z,18.025
2022-09-25T09:05:12.108Z,18.0461
2022-09-25T09:06:11.861Z,18.05
2022-09-25T09:07:26.850Z,18.0927
2022-09-25T09:08:11.862Z,18.1209
2022-09-25T09:09:11.387Z,18.155
2022-09-25T09:10:11.240Z,18.122
2022-09-25T09:11:13.550Z,18.095
2022-09-25T09:12:10.769Z,18.085
2022-09-25T09:13:11.248Z,18.155
2022-09-25T09:14:10.847Z,18.1783
2022-09-25T09:15:11.228Z,18.1841
2022-09-25T09:16:12.074Z,18.23
2022-09-25T09:17:10.986Z,18.235
2022-09-25T09:18:11.996Z,18.265
2022-09-25T09:19:11.563Z,18.339
2022-09-25T09:20:11.455Z,18.395
2022-09-25T09:21:11.870Z,18.404
2022-09-25T09:22:11.297Z,18.435
2022-09-25T09:23:15.439Z,18.46
2022-09-25T09:24:11.406Z,18.47
2022-09-25T09:25:11.494Z,18.49
2022-09-25T09:26:11.149Z,18.525
2022-09-25T09:27:11.389Z,18.525
2022-09-25T09:28:10.861Z,18.58
2022-09-25T09:29:10.082Z,18.6258
2022-09-25T09:30:11.699Z,18.654
2022-09-25T09:31:12.212Z,18.66
2022-09-25T09:32:10.801Z,18.632
2022-09-25T09:33:11.731Z,18.615
2022-09-25T09:34:11.578Z,18.575
2022-09-25T09:35:11.750Z,18.525
2022-09-25T09:36:11.557Z,18.505
2022-09-25T09:37:11.431Z,18.515
2022-09-25T09:38:11.405Z,18.475
2022-09-25T09:39:11.444Z,18.4
2022-09-25T09:40:11.520Z,18.3683
2022-09-25T09:41:11.300Z,18.345
2022-09-25T09:42:11.633Z,18.345
2022-09-25T09:43:11.242Z,18.345
2022-09-25T09:44:11.212Z,18.383
2022-09-25T09:45:11.725Z,18.445
2022-09-25T09:46:11.758Z,18.45
2022-09-25T09:47:11.633Z,18.435
2022-09-25T09:48:11.937Z,18.415
2022-09-25T09:49:11.567Z,18.415
2022-09-25T09:50:12.584Z,18.39
2022-09-25T09:51:11.721Z,18.415
2022-09-25T09:52:11.352Z,18.455
2022-09-25T09:53:11.619Z,18.51
2022-09-25T09:54:11.259Z,18.55
2022-09-25T09:55:11.907Z,18.605
2022-09-25T09:56:10.970Z,18.632
2022-09-25T09:57:10.630Z,18.666
2022-09-25T09:58:11.098Z,18.655
2022-09-25T09:59:11.988Z,18.66
2022-09-25T10:00:10.149Z,18.672
2022-09-25T10:01:36.636Z,18.715
2022-09-25T10:02:11.770Z,18.745
2022-09-25T10:03:12.123Z,18.765
2022-09-25T10:04:11.352Z,18.77
2022-09-25T10:05:11.572Z,18.785
2022-09-25T10:06:11.271Z,18.862
2022-09-25T10:07:11.766Z,18.867
2022-09-25T10:08:11.515Z,18.866
2022-09-25T10:09:11.380Z,18.92
2022-09-25T10:10:11.037Z,18.955
2022-09-25T10:11:11.136Z,19.01
2022-09-25T10:12:10.951Z,19.01
2022-09-25T10:13:11.294Z,19.01
2022-09-25T10:14:11.197Z,19.025
2022-09-25T10:15:11.407Z,19.05
2022-09-25T10:16:11.665Z,19.112
2022-09-25T10:17:11.662Z,19.195
2022-09-25T10:18:11.871Z,19.27
2022-09-25T10:19:10.246Z,19.3
2022-09-25T10:20:11.130Z,19.31
2022-09-25T10:21:11.230Z,19.362
2022-09-25T10:22:13.618Z,19.394
2022-09-25T10:23:14.595Z,19.445
2022-09-25T10:24:11.274Z,19.545
2022-09-25T10:25:10.885Z,19.61
2022-09-25T10:26:10.781Z,19.637
2022-09-25T10:27:11.211Z,19.666
2022-09-25T10:28:10.927Z,19.6841
2022-09-25T10:29:11.192Z,19.74
2022-09-25T10:30:10.416Z,19.744
2022-09-25T10:31:10.961Z,19.735
2022-09-25T10:32:10.704Z,19.775
2022-09-25T10:33:11.859Z,19.7315
2022-09-25T10:34:11.937Z,19.73
2022-09-25T10:35:11.589Z,19.715
2022-09-25T10:36:17.507Z,19.6841
2022-09-25T10:37:11.407Z,19.621
2022-09-25T10:38:11.534Z,19.56
2022-09-25T10:39:39.747Z,19.5327
2022-09-25T10:40:11.443Z,19.495
2022-09-25T10:41:11.317Z,19.44
2022-09-25T10:42:10.674Z,19.415
2022-09-25T10:43:10.317Z,19.43
2022-09-25T10:44:11.047Z,19.445
2022-09-25T10:45:11.235Z,19.455
2022-09-25T10:46:11.276Z,19.5
2022-09-25T10:47:11.016Z,19.49
2022-09-25T10:48:10.701Z,19.5
2022-09-25T10:49:10.952Z,19.525
2022-09-25T10:50:11.583Z,19.575
2022-09-25T10:51:11.865Z,19.56
2022-09-25T10:52:11.347Z,19.605
2022-09-25T10:53:11.302Z,19.644
2022-09-25T10:54:12.059Z,19.666
2022-09-25T10:55:11.473Z,19.75
2022-09-25T10:56:11.217Z,19.775
2022-09-25T10:57:11.359Z,19.811
2022-09-25T10:58:11.137Z,19.889
2022-09-25T10:59:11.476Z,19.955
2022-09-25T11:00:11.410Z,19.985
2022-09-25T11:01:10.922Z,20.005
2022-09-25T11:02:11.089Z,20.005
2022-09-25T11:03:16.251Z,20.04
2022-09-25T11:04:10.958Z,20.045
2022-09-25T11:05:11.242Z,20.09
2022-09-25T11:06:11.103Z,20.137
2022-09-25T11:07:11.310Z,20.133
2022-09-25T11:08:11.881Z,20.204
2022-09-25T11:09:11.049Z,20.245
2022-09-25T11:10:11.033Z,20.195
2022-09-25T11:11:11.779Z,20.155
2022-09-25T11:12:11.166Z,20.095
2022-09-25T11:13:12.089Z,20.055
2022-09-25T11:14:10.848Z,20.015
2022-09-25T11:15:11.415Z,19.99
2022-09-25T11:16:11.418Z,19.98
2022-09-25T11:17:11.541Z,19.975
2022-09-25T11:18:11.721Z,19.965
2022-09-25T11:19:11.203Z,19.985
2022-09-25T11:20:10.976Z,20
2022-09-25T11:21:11.045Z,20.015
2022-09-25T11:22:10.999Z,20.055
2022-09-25T11:23:11.048Z,20.065
2022-09-25T11:24:09.699Z,20.045
2022-09-25T11:25:10.558Z,20.05
2022-09-25T11:26:10.700Z,20.03
2022-09-25T11:27:11.929Z,20.065
2022-09-25T11:28:11.246Z,20.105
2022-09-25T11:29:12.023Z,20.149
2022-09-25T11:30:11.230Z,20.172
2022-09-25T11:31:11.856Z,20.235
2022-09-25T11:32:11.722Z,20.255
2022-09-25T11:33:11.659Z,20.24
2022-09-25T11:34:10.083Z,20.265
2022-09-25T11:35:10.999Z,20.28
2022-09-25T11:36:11.294Z,20.3216
2022-09-25T11:37:11.342Z,20.366
2022-09-25T11:38:11.237Z,20.445
2022-09-25T11:39:11.574Z,20.465
2022-09-25T11:40:11.385Z,20.47
2022-09-25T11:41:10.871Z,20.49
2022-09-25T11:42:11.390Z,20.47
2022-09-25T11:43:10.691Z,20.45
2022-09-25T11:44:10.454Z,20.47
2022-09-25T11:45:10.827Z,20.485
2022-09-25T11:46:10.313Z,20.54
2022-09-25T11:47:11.102Z,20.55
2022-09-25T11:48:12.772Z,20.555
2022-09-25T11:49:12.535Z,20.555
2022-09-25T11:50:12.235Z,20.596
2022-09-25T11:51:11.392Z,20.644
2022-09-25T11:52:12.033Z,20.695
2022-09-25T11:53:11.570Z,20.74
2022-09-25T11:54:25.656Z,20.76
2022-09-25T11:55:11.945Z,20.745
2022-09-25T11:56:11.180Z,20.73
2022-09-25T11:57:11.990Z,20.72
2022-09-25T11:58:11.145Z,20.69
2022-09-25T11:59:11.648Z,20.644
2022-09-25T12:00:11.865Z,20.585
2022-09-25T12:01:12.078Z,20.485
2022-09-25T12:02:11.238Z,20.455
2022-09-25T12:03:11.163Z,20.455
2022-09-25T12:04:11.557Z,20.405
2022-09-25T12:05:11.016Z,20.3672
2022-09-25T12:06:10.197Z,20.3741
2022-09-25T12:07:11.330Z,20.347
2022-09-25T12:08:11.080Z,20.36
2022-09-25T12:09:12.027Z,20.3984
2022-09-25T12:10:10.723Z,20.445
2022-09-25T12:11:11.662Z,20.472
2022-09-25T12:12:11.670Z,20.53
2022-09-25T12:13:11.912Z,20.545
2022-09-25T12:14:11.014Z,20.55
2022-09-25T12:15:11.587Z,20.5
2022-09-25T12:16:10.906Z,20.5218
2022-09-25T12:17:11.947Z,20.55
2022-09-25T12:18:11.446Z,20.5927
2022-09-25T12:19:11.539Z,20.61
2022-09-25T12:20:11.243Z,20.649
2022-09-25T12:21:11.057Z,20.693
2022-09-25T12:22:11.018Z,20.72
2022-09-25T12:23:18.454Z,20.725
2022-09-25T12:24:10.734Z,20.725
2022-09-25T12:25:10.969Z,20.74
2022-09-25T12:26:11.238Z,20.715
2022-09-25T12:27:11.075Z,20.75
2022-09-25T12:28:10.688Z,20.795
2022-09-25T12:29:10.139Z,20.795
2022-09-25T12:30:10.643Z,20.805
2022-09-25T12:31:11.861Z,20.8158
2022-09-25T12:32:10.606Z,20.77
2022-09-25T12:33:11.735Z,20.755
2022-09-25T12:34:11.267Z,20.725
2022-09-25T12:35:10.751Z,20.75
2022-09-25T12:36:11.270Z,20.725
2022-09-25T12:37:10.883Z,20.75
2022-09-25T12:38:11.475Z,20.755